Time;durP1;ratioP1;P1;durP2;ratioP2;P2;SDS_P1;SDS_P2;PMS_P1;PMS_P2;Temp;Humidity;BMP_temperature;BMP_pressure;BME280_temperature;BME280_humidity;BME280_pressure;Samples;Min_cycle;Max_cycle;Signal;HPM_P1;HPM_P2
2022/02/14 00:00:37;;;;;;;9.80;3.83;;;4.20;97.30;;;;;;5032370;28;20789;-81
2022/02/14 00:03:03;;;;;;;8.80;3.40;;;4.20;97.30;;;;;;5033566;28;20796;-78
2022/02/14 00:05:32;;;;;;;7.20;3.43;;;4.30;97.30;;;;;;5031838;28;20776;-78
2022/02/14 00:07:57;;;;;;;7.20;3.70;;;4.30;97.30;;;;;;5030872;28;20427;-78
2022/02/14 00:10:23;;;;;;;5.50;2.93;;;4.40;97.10;;;;;;5030677;28;20466;-78
2022/02/14 00:12:51;;;;;;;3.97;2.60;;;4.40;96.80;;;;;;5030389;28;20232;-78
2022/02/14 00:15:17;;;;;;;7.13;2.97;;;4.50;96.50;;;;;;5030564;28;20230;-78
2022/02/14 00:17:43;;;;;;;6.87;3.10;;;4.50;96.10;;;;;;5030779;28;20420;-78
2022/02/14 00:20:09;;;;;;;7.93;3.10;;;4.60;95.80;;;;;;5031002;28;20608;-78
2022/02/14 00:22:35;;;;;;;5.97;2.47;;;4.70;95.00;;;;;;5031078;28;20574;-78
2022/02/14 00:25:01;;;;;;;12.13;3.40;;;4.80;94.70;;;;;;5031157;28;20419;-78
2022/02/14 00:27:27;;;;;;;5.50;2.83;;;4.90;94.40;;;;;;5032300;28;20600;-77
2022/02/14 00:29:52;;;;;;;7.40;3.00;;;4.90;94.20;;;;;;5030358;28;20267;-78
2022/02/14 00:32:20;;;;;;;8.33;3.00;;;4.90;94.00;;;;;;5030087;28;20435;-78
2022/02/14 00:34:46;;;;;;;8.67;3.17;;;4.90;94.20;;;;;;5030087;28;20264;-78
2022/02/14 00:37:12;;;;;;;5.87;2.67;;;4.90;94.20;;;;;;5030289;28;20447;-78
2022/02/14 00:39:39;;;;;;;4.23;2.53;;;4.80;94.20;;;;;;5030589;28;20466;-78
2022/02/14 00:42:05;;;;;;;5.73;3.10;;;4.90;94.00;;;;;;5030215;28;20443;-78
2022/02/14 00:44:31;;;;;;;10.30;3.27;;;4.90;93.90;;;;;;5030058;28;20426;-78
2022/02/14 00:46:57;;;;;;;8.90;3.40;;;4.90;93.70;;;;;;5030193;28;20864;-78
2022/02/14 00:49:22;;;;;;;5.37;2.70;;;5.00;93.50;;;;;;5030129;28;20271;-78
2022/02/14 00:51:48;;;;;;;4.97;3.20;;;5.00;93.40;;;;;;5030131;28;20286;-78
2022/02/14 00:54:14;;;;;;;8.37;3.37;;;5.00;93.50;;;;;;5031634;28;20183;-78
2022/02/14 00:56:39;;;;;;;4.17;2.80;;;5.00;93.40;;;;;;5030467;28;20176;-78
2022/02/14 00:59:05;;;;;;;4.27;2.50;;;4.90;93.40;;;;;;5029763;28;20458;-78
2022/02/14 01:01:30;;;;;;;6.87;2.90;;;4.90;93.50;;;;;;5030099;28;20185;-78
2022/02/14 01:03:56;;;;;;;4.93;2.87;;;4.90;93.50;;;;;;5029669;28;20214;-78
2022/02/14 01:06:25;;;;;;;5.00;2.50;;;4.90;93.70;;;;;;5030101;28;20188;-78
2022/02/14 01:08:51;;;;;;;9.07;3.30;;;4.80;93.60;;;;;;5029668;28;20220;-78
2022/02/14 01:11:17;;;;;;;6.20;2.80;;;4.80;93.70;;;;;;5029517;28;20462;-78
2022/02/14 01:13:42;;;;;;;4.53;2.60;;;4.80;93.70;;;;;;5031242;28;20481;-78
2022/02/14 01:16:08;;;;;;;6.63;3.17;;;4.80;93.90;;;;;;5030020;28;20184;-78
2022/02/14 01:18:34;;;;;;;5.40;2.60;;;4.80;93.80;;;;;;5030011;28;20552;-77
2022/02/14 01:20:59;;;;;;;3.57;2.47;;;4.80;93.70;;;;;;5029645;28;20208;-78
2022/02/14 01:23:25;;;;;;;8.80;2.67;;;4.70;93.70;;;;;;5030104;28;20196;-78
2022/02/14 01:25:50;;;;;;;22.50;5.90;;;4.80;93.40;;;;;;5029402;28;20282;-77
2022/02/14 01:28:16;;;;;;;5.83;2.70;;;4.80;93.50;;;;;;5029551;28;20211;-78
2022/02/14 01:30:41;;;;;;;4.60;2.57;;;4.90;93.20;;;;;;5029313;28;20212;-78
2022/02/14 01:33:07;;;;;;;6.73;2.70;;;4.90;93.20;;;;;;5029008;28;20258;-78
2022/02/14 01:35:33;;;;;;;8.03;2.57;;;4.90;92.80;;;;;;5029118;28;20250;-78
2022/02/14 01:37:59;;;;;;;5.20;3.00;;;4.90;92.80;;;;;;5029084;28;20439;-78
2022/02/14 01:40:24;;;;;;;8.43;2.30;;;4.90;92.80;;;;;;5028995;28;20559;-78
2022/02/14 01:42:50;;;;;;;3.93;2.40;;;4.80;92.80;;;;;;5029036;28;20693;-77
2022/02/14 01:45:16;;;;;;;5.43;2.40;;;4.90;92.60;;;;;;5029767;28;20275;-78
2022/02/14 01:47:42;;;;;;;4.17;2.40;;;4.80;92.80;;;;;;5030334;28;20494;-78
2022/02/14 01:50:10;;;;;;;5.20;2.47;;;4.80;92.70;;;;;;5030496;28;20684;-77
2022/02/14 01:52:36;;;;;;;3.90;2.57;;;4.80;92.80;;;;;;5028934;28;20193;-77
2022/02/14 01:55:05;;;;;;;5.27;2.90;;;4.80;92.80;;;;;;5028817;28;20410;-78
2022/02/14 01:57:30;;;;;;;9.97;3.23;;;4.80;93.20;;;;;;5029424;28;20177;-79
2022/02/14 01:59:59;;;;;;;7.87;2.47;;;4.70;93.30;;;;;;5029761;28;20438;-80
2022/02/14 02:02:25;;;;;;;4.83;2.77;;;4.60;93.50;;;;;;5030668;28;20670;-81
2022/02/14 02:04:51;;;;;;;4.10;2.63;;;4.50;93.80;;;;;;5030081;28;20476;-80
2022/02/14 02:07:17;;;;;;;3.03;2.40;;;4.50;93.90;;;;;;5032130;28;20407;-80
2022/02/14 02:09:44;;;;;;;4.60;2.50;;;4.50;94.00;;;;;;5031952;28;20411;-80
2022/02/14 02:12:23;;;;;;;5.17;2.53;;;4.40;94.00;;;;;;5030057;28;20435;-80
2022/02/14 02:14:50;;;;;;;7.93;2.87;;;4.40;94.00;;;;;;5030197;28;20470;-81
2022/02/14 02:17:16;;;;;;;10.13;2.97;;;4.40;93.80;;;;;;5030579;28;20418;-80
2022/02/14 02:19:41;;;;;;;3.90;2.60;;;4.50;93.70;;;;;;5032166;28;20404;-81
2022/02/14 02:22:07;;;;;;;8.53;2.30;;;4.50;93.70;;;;;;5031324;28;20512;-81
2022/02/14 02:24:50;;;;;;;5.37;2.60;;;4.50;93.40;;;;;;5030229;28;20168;-81
2022/02/14 02:27:17;;;;;;;4.33;2.77;;;4.50;93.30;;;;;;5029923;28;20183;-80
2022/02/14 02:29:42;;;;;;;5.73;2.33;;;4.50;93.20;;;;;;5029926;28;20417;-80
2022/02/14 02:32:10;;;;;;;3.80;2.50;;;4.60;93.20;;;;;;5030234;28;20518;-80
2022/02/14 02:34:40;;;;;;;3.70;2.37;;;4.60;93.10;;;;;;5029698;28;20179;-81
2022/02/14 02:37:08;;;;;;;4.83;2.50;;;4.60;93.10;;;;;;5030190;28;20419;-81
2022/02/14 02:39:35;;;;;;;6.37;3.30;;;4.60;92.90;;;;;;5030850;28;20415;-81
2022/02/14 02:42:03;;;;;;;4.73;2.70;;;4.60;92.80;;;;;;5029431;28;20976;-81
2022/02/14 02:44:29;;;;;;;7.20;2.63;;;4.60;92.80;;;;;;5030761;28;20443;-80
2022/02/14 02:46:55;;;;;;;5.60;2.70;;;4.70;92.60;;;;;;5031261;28;20409;-81
2022/02/14 02:49:22;;;;;;;3.23;1.97;;;4.70;92.60;;;;;;5030001;28;20517;-80
2022/02/14 02:51:53;;;;;;;4.60;2.20;;;4.60;92.70;;;;;;5029937;28;20212;-80
2022/02/14 02:54:20;;;;;;;5.60;2.70;;;4.60;92.60;;;;;;5029782;28;20419;-80
2022/02/14 02:56:49;;;;;;;6.07;2.40;;;4.60;92.60;;;;;;5033744;28;20411;-80
2022/02/14 02:59:16;;;;;;;5.87;2.33;;;4.70;92.30;;;;;;5034513;28;20529;-80
2022/02/14 03:01:41;;;;;;;3.00;2.63;;;4.70;92.20;;;;;;5034493;28;20439;-81
2022/02/14 03:04:09;;;;;;;5.37;2.50;;;4.70;92.00;;;;;;5034323;28;20839;-81
2022/02/14 03:06:35;;;;;;;9.23;2.47;;;4.70;92.20;;;;;;5033830;28;20523;-80
2022/02/14 03:09:01;;;;;;;5.80;2.30;;;4.70;92.30;;;;;;5033877;28;20422;-81
2022/02/14 03:11:27;;;;;;;3.23;2.53;;;4.60;92.50;;;;;;5033893;28;20215;-80
2022/02/14 03:13:54;;;;;;;5.83;2.30;;;4.60;92.60;;;;;;5034868;28;20992;-81
2022/02/14 03:16:20;;;;;;;4.07;2.23;;;4.50;92.70;;;;;;5033341;28;20469;-81
2022/02/14 03:18:46;;;;;;;4.00;2.40;;;4.50;92.80;;;;;;5033277;28;20423;-81
2022/02/14 03:21:12;;;;;;;3.73;2.40;;;4.50;92.90;;;;;;5033398;28;20793;-80
2022/02/14 03:23:38;;;;;;;4.40;2.50;;;4.40;93.00;;;;;;5033071;28;20443;-80
2022/02/14 03:26:04;;;;;;;4.67;2.30;;;4.30;93.10;;;;;;5032849;28;20419;-80
2022/02/14 03:28:31;;;;;;;7.70;2.50;;;4.30;93.20;;;;;;5033292;28;20415;-80
2022/02/14 03:30:57;;;;;;;4.40;2.30;;;4.30;93.20;;;;;;5033092;28;20991;-80
2022/02/14 03:33:23;;;;;;;9.43;2.63;;;4.30;93.30;;;;;;5033315;28;20431;-81
2022/02/14 03:35:49;;;;;;;4.37;2.33;;;4.30;93.40;;;;;;5032928;28;20423;-80
2022/02/14 03:38:15;;;;;;;7.53;2.87;;;4.20;93.40;;;;;;5033169;28;20457;-80
2022/02/14 03:40:42;;;;;;;3.53;2.60;;;4.30;93.30;;;;;;5032781;28;20526;-81
2022/02/14 03:43:08;;;;;;;3.87;2.40;;;4.30;93.00;;;;;;5033355;28;20443;-80
2022/02/14 03:45:35;;;;;;;2.80;2.27;;;4.40;92.80;;;;;;5034569;28;20437;-80
2022/02/14 03:48:01;;;;;;;3.77;2.20;;;4.40;92.50;;;;;;5033534;28;20418;-81
2022/02/14 03:50:27;;;;;;;7.70;4.13;;;4.40;92.50;;;;;;5033444;28;20447;-81
2022/02/14 03:52:53;;;;;;;2.23;2.03;;;4.50;92.40;;;;;;5032886;28;20804;-81
2022/02/14 03:55:20;;;;;;;5.60;2.73;;;4.40;92.70;;;;;;5033177;28;20972;-80
2022/02/14 03:57:50;;;;;;;5.37;2.27;;;4.40;92.70;;;;;;5032989;28;20463;-78
2022/02/14 04:00:17;;;;;;;4.07;2.33;;;4.40;92.80;;;;;;5035909;28;20430;-81
2022/02/14 04:02:43;;;;;;;4.13;2.77;;;4.30;92.90;;;;;;5036086;28;20526;-81
2022/02/14 04:05:09;;;;;;;6.27;2.10;;;4.30;93.00;;;;;;5035013;28;20431;-81
2022/02/14 04:07:35;;;;;;;5.00;2.37;;;4.30;92.90;;;;;;5033939;28;20947;-81
2022/02/14 04:10:02;;;;;;;4.03;2.53;;;4.30;93.00;;;;;;5035357;28;20455;-82
2022/02/14 04:12:27;;;;;;;3.63;2.87;;;4.30;93.20;;;;;;5034739;28;20585;-81
2022/02/14 04:14:53;;;;;;;6.27;2.30;;;4.30;93.20;;;;;;5035107;28;20423;-81
2022/02/14 04:17:19;;;;;;;3.53;2.73;;;4.30;92.80;;;;;;5034774;28;20259;-81
2022/02/14 04:19:44;;;;;;;4.97;2.10;;;4.30;92.70;;;;;;5035351;28;20626;-81
2022/02/14 04:22:10;;;;;;;3.20;2.00;;;4.30;92.70;;;;;;5034665;28;20197;-80
2022/02/14 04:24:36;;;;;;;4.93;2.53;;;4.30;92.90;;;;;;5035136;28;20696;-81
2022/02/14 04:27:01;;;;;;;4.10;2.13;;;4.30;92.80;;;;;;5035264;28;20411;-80
2022/02/14 04:29:27;;;;;;;5.73;2.47;;;4.30;92.80;;;;;;5036578;28;20805;-81
2022/02/14 04:31:52;;;;;;;3.57;2.73;;;4.30;92.70;;;;;;5034765;28;20766;-81
2022/02/14 04:34:19;;;;;;;3.87;2.63;;;4.30;92.50;;;;;;5036320;28;20172;-81
2022/02/14 04:36:51;;;;;;;2.67;2.13;;;4.30;92.50;;;;;;5035280;28;20652;-82
2022/02/14 04:39:17;;;;;;;4.30;2.57;;;4.30;92.60;;;;;;5034714;28;20506;-81
2022/02/14 04:41:43;;;;;;;3.60;2.50;;;4.30;92.70;;;;;;5034150;28;20435;-82
2022/02/14 04:44:09;;;;;;;3.20;2.03;;;4.30;92.70;;;;;;5034929;28;20446;-81
2022/02/14 04:46:35;;;;;;;4.10;3.07;;;4.20;92.80;;;;;;5034978;28;20558;-81
2022/02/14 04:49:01;;;;;;;5.20;2.20;;;4.20;92.90;;;;;;5034667;28;20457;-82
2022/02/14 04:51:27;;;;;;;6.97;2.80;;;4.20;93.10;;;;;;5034751;28;20205;-81
2022/02/14 04:53:53;;;;;;;7.27;3.27;;;4.10;93.00;;;;;;5034107;28;20424;-81
2022/02/14 04:56:19;;;;;;;5.60;2.87;;;4.10;93.10;;;;;;5034487;28;20175;-81
2022/02/14 04:58:45;;;;;;;5.03;2.70;;;4.10;93.00;;;;;;5033891;28;20498;-81
2022/02/14 05:01:11;;;;;;;4.63;2.30;;;4.10;92.90;;;;;;5034523;28;20203;-81
2022/02/14 05:03:37;;;;;;;3.70;2.83;;;4.10;93.20;;;;;;5034029;28;20526;-81
2022/02/14 05:06:02;;;;;;;3.33;2.27;;;4.10;93.30;;;;;;5035691;28;20421;-81
2022/02/14 05:08:28;;;;;;;7.67;2.90;;;4.00;93.20;;;;;;5033852;28;20180;-82
2022/02/14 05:10:54;;;;;;;4.20;2.33;;;4.00;93.40;;;;;;5034720;28;20209;-81
2022/02/14 05:13:20;;;;;;;4.40;2.10;;;4.00;93.40;;;;;;5034098;28;20232;-81
2022/02/14 05:15:45;;;;;;;7.70;3.20;;;3.90;93.50;;;;;;5034304;28;20423;-81
2022/02/14 05:18:11;;;;;;;8.60;2.60;;;3.90;93.60;;;;;;5032975;28;20181;-81
2022/02/14 05:20:37;;;;;;;5.70;2.60;;;3.90;93.80;;;;;;5034414;28;20176;-81
2022/02/14 05:23:02;;;;;;;9.83;4.10;;;3.90;93.80;;;;;;5034529;28;20651;-81
2022/02/14 05:25:28;;;;;;;4.43;2.17;;;3.90;93.80;;;;;;5034373;28;20180;-81
2022/02/14 05:27:54;;;;;;;4.70;2.70;;;3.90;93.80;;;;;;5033674;28;20192;-81
2022/02/14 05:30:20;;;;;;;2.90;2.37;;;3.90;93.90;;;;;;5033708;28;20200;-81
2022/02/14 05:32:46;;;;;;;6.57;2.57;;;3.80;94.00;;;;;;5033811;28;20227;-81
2022/02/14 05:35:12;;;;;;;7.73;2.53;;;3.80;94.10;;;;;;5033962;28;20850;-81
2022/02/14 05:37:37;;;;;;;5.83;3.00;;;3.80;94.20;;;;;;5035297;28;20180;-81
2022/02/14 05:40:04;;;;;;;5.93;2.70;;;3.80;94.30;;;;;;5033618;28;20184;-81
2022/02/14 05:42:29;;;;;;;4.37;2.60;;;3.80;94.40;;;;;;5034535;28;20196;-81
2022/02/14 05:44:55;;;;;;;6.80;2.40;;;3.70;94.40;;;;;;5033444;28;20438;-81
2022/02/14 05:47:21;;;;;;;3.77;2.57;;;3.70;94.40;;;;;;5033027;28;20226;-81
2022/02/14 05:49:46;;;;;;;6.23;2.50;;;3.70;94.60;;;;;;5033307;28;20187;-81
2022/02/14 05:52:12;;;;;;;3.37;2.70;;;3.70;94.70;;;;;;5033303;28;20193;-81
2022/02/14 05:54:38;;;;;;;4.93;2.57;;;3.70;94.70;;;;;;5033580;28;20653;-81
2022/02/14 05:57:04;;;;;;;3.00;2.20;;;3.60;94.70;;;;;;5032757;28;20236;-79
2022/02/14 05:59:29;;;;;;;4.20;2.57;;;3.60;94.70;;;;;;5031460;28;20179;-79
2022/02/14 06:01:55;;;;;;;5.67;2.60;;;3.70;94.60;;;;;;5030782;28;20841;-78
2022/02/14 06:04:20;;;;;;;4.57;2.87;;;3.70;94.40;;;;;;5031256;28;20176;-79
2022/02/14 06:06:46;;;;;;;3.70;2.40;;;3.70;94.40;;;;;;5030893;28;20476;-78
2022/02/14 06:09:13;;;;;;;2.90;2.43;;;3.70;94.30;;;;;;5030778;28;20610;-79
2022/02/14 06:11:39;;;;;;;5.10;3.00;;;3.70;94.30;;;;;;5030601;28;20213;-78
2022/02/14 06:14:04;;;;;;;3.17;2.47;;;3.70;94.30;;;;;;5030514;28;21038;-79
2022/02/14 06:16:31;;;;;;;7.43;3.30;;;3.70;94.40;;;;;;5032236;28;20407;-78
2022/02/14 06:18:57;;;;;;;8.70;2.90;;;3.70;94.50;;;;;;5030685;28;20275;-79
2022/02/14 06:21:22;;;;;;;5.17;2.20;;;3.60;94.50;;;;;;5030964;28;20423;-78
2022/02/14 06:23:49;;;;;;;4.77;2.70;;;3.60;94.70;;;;;;5031043;28;20419;-79
2022/02/14 06:26:15;;;;;;;3.40;2.17;;;3.60;94.80;;;;;;5031069;28;20199;-78
2022/02/14 06:28:41;;;;;;;8.50;2.97;;;3.60;94.70;;;;;;5030924;28;20497;-79
2022/02/14 06:31:09;;;;;;;4.13;2.50;;;3.70;94.40;;;;;;5030085;28;20203;-79
2022/02/14 06:33:36;;;;;;;8.53;3.00;;;3.70;94.40;;;;;;5030368;28;20196;-79
2022/02/14 06:36:02;;;;;;;2.63;1.90;;;3.80;94.30;;;;;;5030913;28;20913;-79
2022/02/14 06:38:28;;;;;;;5.37;2.50;;;3.80;94.20;;;;;;5030699;28;20423;-79
2022/02/14 06:40:53;;;;;;;5.00;2.40;;;3.90;94.10;;;;;;5030446;28;20522;-79
2022/02/14 06:43:19;;;;;;;4.60;2.40;;;3.90;94.20;;;;;;5030333;28;20474;-78
2022/02/14 06:45:45;;;;;;;6.53;2.50;;;4.00;93.70;;;;;;5030777;28;20187;-78
2022/02/14 06:48:12;;;;;;;6.10;2.50;;;4.10;93.40;;;;;;5030739;28;20419;-79
2022/02/14 06:50:38;;;;;;;5.07;2.73;;;4.10;93.30;;;;;;5030323;28;20212;-79
2022/02/14 06:53:03;;;;;;;14.23;2.77;;;4.20;93.00;;;;;;5031717;28;20506;-78
2022/02/14 06:55:29;;;;;;;3.80;2.47;;;4.30;92.80;;;;;;5030815;28;20222;-78
2022/02/14 06:57:55;;;;;;;7.10;2.40;;;4.30;92.40;;;;;;5030804;28;20212;-79
2022/02/14 07:00:20;;;;;;;5.40;2.53;;;4.40;92.20;;;;;;5032018;28;20181;-79
2022/02/14 07:02:46;;;;;;;3.60;2.53;;;4.50;91.90;;;;;;5030611;28;20246;-78
2022/02/14 07:05:14;;;;;;;3.43;2.23;;;4.60;91.40;;;;;;5031011;28;20180;-78
2022/02/14 07:07:40;;;;;;;10.60;2.80;;;4.60;91.40;;;;;;5031493;28;20180;-78
2022/02/14 07:10:06;;;;;;;5.87;3.50;;;4.70;91.30;;;;;;5030050;28;20423;-78
2022/02/14 07:12:32;;;;;;;4.80;2.53;;;4.70;91.20;;;;;;5030292;28;20995;-79
2022/02/14 07:14:58;;;;;;;5.53;2.30;;;4.80;91.00;;;;;;5030411;28;20415;-78
2022/02/14 07:17:24;;;;;;;11.10;2.53;;;4.90;90.70;;;;;;5030831;28;20231;-79
2022/02/14 07:19:49;;;;;;;5.87;2.37;;;5.00;90.40;;;;;;5031301;28;20187;-78
2022/02/14 07:22:15;;;;;;;3.50;2.37;;;5.10;90.00;;;;;;5029762;28;20254;-79
2022/02/14 07:24:40;;;;;;;3.67;2.20;;;5.20;89.90;;;;;;5030003;28;20177;-78
2022/02/14 07:27:06;;;;;;;3.20;2.43;;;5.20;89.80;;;;;;5029573;28;20192;-79
2022/02/14 07:29:32;;;;;;;3.07;2.40;;;5.30;89.00;;;;;;5029959;28;20176;-79
2022/02/14 07:31:59;;;;;;;5.90;2.43;;;5.40;88.90;;;;;;5030146;28;20219;-79
2022/02/14 07:34:25;;;;;;;7.50;3.10;;;5.50;88.70;;;;;;5030067;28;20419;-79
2022/02/14 07:36:50;;;;;;;6.93;2.60;;;5.60;88.40;;;;;;5030313;28;20419;-79
2022/02/14 07:39:16;;;;;;;4.23;2.27;;;5.70;88.30;;;;;;5029878;28;20646;-79
2022/02/14 07:41:42;;;;;;;5.73;2.30;;;5.80;87.80;;;;;;5029840;28;20212;-78
2022/02/14 07:44:07;;;;;;;3.70;2.43;;;5.90;88.00;;;;;;5033459;28;20496;-78
2022/02/14 07:46:33;;;;;;;2.57;2.20;;;6.00;87.30;;;;;;5033631;28;20197;-80
2022/02/14 07:48:59;;;;;;;7.30;2.87;;;6.00;87.20;;;;;;5033231;28;20640;-79
2022/02/14 07:51:25;;;;;;;7.30;2.60;;;6.10;86.90;;;;;;5031737;28;20219;-78
2022/02/14 07:53:51;;;;;;;8.40;2.93;;;6.20;86.70;;;;;;5031199;28;20555;-78
2022/02/14 07:56:17;;;;;;;8.63;3.30;;;6.30;86.70;;;;;;5033436;28;20415;-81
2022/02/14 07:58:43;;;;;;;8.23;2.80;;;6.40;86.30;;;;;;5036634;28;20517;-82
2022/02/14 08:01:09;;;;;;;3.53;2.70;;;6.50;86.10;;;;;;5036752;28;20183;-82
2022/02/14 08:03:34;;;;;;;4.73;2.80;;;6.50;85.70;;;;;;5037116;28;20204;-83
2022/02/14 08:06:01;;;;;;;6.13;2.87;;;6.70;85.30;;;;;;5036953;28;20411;-82
2022/02/14 08:08:26;;;;;;;6.73;2.30;;;6.70;85.10;;;;;;5036907;28;20180;-82
2022/02/14 08:10:53;;;;;;;6.17;4.20;;;6.80;85.10;;;;;;5035025;28;20474;-82
2022/02/14 08:13:19;;;;;;;3.90;2.60;;;6.90;84.90;;;;;;5034544;28;20287;-82
2022/02/14 08:15:45;;;;;;;7.30;3.60;;;7.00;85.40;;;;;;5035097;28;20481;-82
2022/02/14 08:18:10;;;;;;;6.00;2.40;;;7.10;84.90;;;;;;5036779;28;20180;-82
2022/02/14 08:20:37;;;;;;;4.73;2.70;;;7.20;84.50;;;;;;5035064;28;20180;-82
2022/02/14 08:23:04;;;;;;;4.27;2.80;;;7.30;84.30;;;;;;5035490;28;20201;-82
2022/02/14 08:25:31;;;;;;;5.97;2.80;;;7.30;83.70;;;;;;5035536;28;20447;-81
2022/02/14 08:27:58;;;;;;;3.40;2.47;;;7.40;83.90;;;;;;5036784;28;20442;-82
2022/02/14 08:30:24;;;;;;;8.37;2.67;;;7.50;83.30;;;;;;5035328;28;20496;-82
2022/02/14 08:32:50;;;;;;;4.70;2.97;;;7.50;83.70;;;;;;5035821;28;20489;-82
2022/02/14 08:35:17;;;;;;;4.83;2.83;;;7.70;82.80;;;;;;5035358;28;20753;-82
2022/02/14 08:37:44;;;;;;;2.73;2.27;;;7.80;82.60;;;;;;5037259;28;20165;-82
2022/02/14 08:40:10;;;;;;;4.33;2.20;;;7.80;82.00;;;;;;5035607;28;20905;-82
2022/02/14 08:42:35;;;;;;;4.17;2.10;;;7.90;82.10;;;;;;5036870;28;20438;-82
2022/02/14 08:45:02;;;;;;;4.50;2.60;;;8.00;81.60;;;;;;5035370;28;20416;-82
2022/02/14 08:47:28;;;;;;;4.57;2.60;;;8.10;81.20;;;;;;5036648;28;20180;-82
2022/02/14 08:49:53;;;;;;;5.97;2.70;;;8.10;80.80;;;;;;5036338;28;20424;-82
2022/02/14 08:52:20;;;;;;;7.60;2.73;;;8.20;80.80;;;;;;5035663;28;20686;-82
2022/02/14 08:54:45;;;;;;;6.43;3.33;;;8.30;80.70;;;;;;5034619;28;20177;-82
2022/02/14 08:57:11;;;;;;;5.63;2.37;;;8.40;81.00;;;;;;5036331;28;20429;-82
2022/02/14 08:59:36;;;;;;;7.90;2.83;;;8.40;80.60;;;;;;5035253;28;20176;-82
2022/02/14 09:02:03;;;;;;;2.60;1.80;;;8.50;80.00;;;;;;5035984;28;20342;-83
2022/02/14 09:04:29;;;;;;;6.90;2.50;;;8.60;79.70;;;;;;5035195;28;20686;-82
2022/02/14 09:06:54;;;;;;;5.40;2.60;;;8.70;79.80;;;;;;5035210;28;20478;-82
2022/02/14 09:09:20;;;;;;;4.57;2.30;;;8.70;79.60;;;;;;5035699;28;20274;-83
2022/02/14 09:11:46;;;;;;;4.20;2.70;;;8.80;79.50;;;;;;5034758;28;20212;-82
2022/02/14 09:14:12;;;;;;;9.53;2.30;;;8.90;79.10;;;;;;5034533;28;20262;-82
2022/02/14 09:16:38;;;;;;;3.17;2.20;;;8.90;79.20;;;;;;5034628;28;20418;-83
2022/02/14 09:19:04;;;;;;;3.63;2.40;;;9.00;79.20;;;;;;5034465;28;20189;-82
2022/02/14 09:21:29;;;;;;;10.00;3.50;;;9.10;78.20;;;;;;5036086;28;20631;-83
2022/02/14 09:23:55;;;;;;;3.73;2.40;;;9.20;78.50;;;;;;5035197;28;20176;-83
2022/02/14 09:26:21;;;;;;;4.27;2.20;;;9.30;78.30;;;;;;5034637;28;20180;-83
2022/02/14 09:28:47;;;;;;;8.63;2.47;;;9.30;77.90;;;;;;5034560;28;20184;-82
2022/02/14 09:31:13;;;;;;;4.70;2.80;;;9.40;77.90;;;;;;5034080;28;20463;-82
2022/02/14 09:33:38;;;;;;;3.20;2.10;;;9.50;77.60;;;;;;5035056;28;20200;-82
2022/02/14 09:36:04;;;;;;;3.37;2.20;;;9.60;77.20;;;;;;5035156;28;20180;-83
2022/02/14 09:38:30;;;;;;;8.63;2.60;;;9.60;77.40;;;;;;5034579;28;20704;-82
2022/02/14 09:40:59;;;;;;;8.70;2.60;;;9.70;77.40;;;;;;5038285;28;20188;-83
2022/02/14 09:43:25;;;;;;;5.60;2.70;;;9.80;77.50;;;;;;5035702;28;20610;-83
2022/02/14 09:45:51;;;;;;;4.43;2.10;;;10.00;77.30;;;;;;5037166;28;20480;-83
2022/02/14 09:48:20;;;;;;;3.77;2.30;;;10.00;77.00;;;;;;5037126;28;20444;-82
2022/02/14 09:50:46;;;;;;;9.13;2.97;;;10.20;76.80;;;;;;5035104;28;20357;-82
2022/02/14 09:53:15;;;;;;;5.53;2.70;;;10.30;77.20;;;;;;5034308;28;20953;-83
2022/02/14 09:55:41;;;;;;;5.40;2.57;;;10.40;76.60;;;;;;5033990;28;20180;-79
2022/02/14 09:58:07;;;;;;;5.97;2.50;;;10.40;76.70;;;;;;5031993;28;20404;-79
2022/02/14 10:00:34;;;;;;;4.80;2.67;;;10.50;76.50;;;;;;5031243;28;20452;-79
2022/02/14 10:03:15;;;;;;;4.60;2.27;;;10.60;76.50;;;;;;5031808;28;20446;-79
2022/02/14 10:05:46;;;;;;;3.57;2.40;;;10.70;76.20;;;;;;5030683;28;20464;-80
2022/02/14 10:08:19;;;;;;;4.37;2.40;;;10.90;76.70;;;;;;5031353;28;20960;-80
2022/02/14 10:10:45;;;;;;;4.30;2.43;;;10.90;75.80;;;;;;5031314;28;20549;-80
2022/02/14 10:13:10;;;;;;;3.70;2.60;;;10.90;76.10;;;;;;5030989;28;20509;-79
2022/02/14 10:15:49;;;;;;;4.10;2.40;;;11.00;75.90;;;;;;5032008;28;20182;-80
2022/02/14 10:18:33;;;;;;;6.83;2.70;;;11.10;75.20;;;;;;5032422;28;20720;-79
2022/02/14 10:21:22;;;;;;;5.23;2.80;;;11.00;75.00;;;;;;5031316;28;20430;-80
2022/02/14 10:24:01;;;;;;;5.87;2.33;;;11.10;75.40;;;;;;5031201;28;20473;-80
2022/02/14 10:26:29;;;;;;;5.40;2.60;;;11.10;75.20;;;;;;5031452;28;20488;-80
2022/02/14 10:28:54;;;;;;;5.30;2.90;;;11.20;75.60;;;;;;5032814;28;20422;-79
2022/02/14 10:31:20;;;;;;;2.80;2.20;;;11.40;75.50;;;;;;5031988;28;20459;-79
2022/02/14 10:33:47;;;;;;;5.33;2.43;;;11.40;75.30;;;;;;5032258;28;20659;-80
2022/02/14 10:36:14;;;;;;;4.57;2.17;;;11.50;75.20;;;;;;5031888;28;20173;-79
2022/02/14 10:38:39;;;;;;;4.70;2.40;;;11.50;75.10;;;;;;5031952;28;20422;-80
2022/02/14 10:41:14;;;;;;;8.10;2.57;;;11.60;75.30;;;;;;5031733;28;20925;-80
2022/02/14 10:43:40;;;;;;;4.43;2.23;;;11.70;75.40;;;;;;5031265;28;20200;-78
2022/02/14 10:46:07;;;;;;;4.70;3.00;;;11.70;75.30;;;;;;5033766;28;20782;-79
2022/02/14 10:48:39;;;;;;;5.80;2.60;;;11.80;75.80;;;;;;5032149;28;20416;-80
2022/02/14 10:51:06;;;;;;;6.47;2.67;;;11.80;74.90;;;;;;5031257;28;20988;-80
2022/02/14 10:53:58;;;;;;;6.73;3.10;;;11.80;75.10;;;;;;5031596;28;20431;-80
2022/02/14 10:56:25;;;;;;;4.20;2.40;;;11.90;75.40;;;;;;5030979;28;20438;-79
2022/02/14 10:59:08;;;;;;;4.23;2.50;;;12.00;75.60;;;;;;5031420;28;20947;-80
2022/02/14 11:01:34;;;;;;;9.33;2.80;;;12.00;74.90;;;;;;5032795;28;20507;-80
2022/02/14 11:04:00;;;;;;;4.10;2.47;;;12.00;75.00;;;;;;5031464;28;20446;-80
2022/02/14 11:06:27;;;;;;;3.40;2.20;;;12.00;75.10;;;;;;5031989;28;20427;-80
2022/02/14 11:08:54;;;;;;;6.53;2.80;;;12.10;75.50;;;;;;5031828;28;20223;-80
2022/02/14 11:11:20;;;;;;;4.93;2.27;;;12.20;75.60;;;;;;5031131;28;21067;-79
2022/02/14 11:13:47;;;;;;;6.53;3.03;;;12.30;75.60;;;;;;5033160;28;20467;-80
2022/02/14 11:16:14;;;;;;;6.53;2.40;;;12.50;75.80;;;;;;5033510;28;20419;-79
2022/02/14 11:18:41;;;;;;;4.47;2.40;;;12.70;76.10;;;;;;5035562;28;20948;-80
2022/02/14 11:21:07;;;;;;;8.80;2.77;;;12.90;75.60;;;;;;5036020;28;20426;-79
2022/02/14 11:23:41;;;;;;;3.77;2.40;;;13.00;75.10;;;;;;5037512;28;20434;-80
2022/02/14 11:26:36;;;;;;;6.80;2.63;;;13.10;74.80;;;;;;5035620;28;20444;-80
2022/02/14 11:29:27;;;;;;;3.90;2.60;;;13.00;74.40;;;;;;5034937;28;20430;-79
2022/02/14 11:32:16;;;;;;;3.70;2.30;;;13.00;74.80;;;;;;5035242;28;20481;-79
2022/02/14 11:34:53;;;;;;;5.97;2.63;;;13.00;75.20;;;;;;5035225;28;20424;-80
2022/02/14 11:37:19;;;;;;;9.30;2.60;;;13.20;75.20;;;;;;5036500;28;20916;-80
2022/02/14 11:39:44;;;;;;;6.00;2.87;;;13.40;75.00;;;;;;5035239;28;20418;-80
2022/02/14 11:42:11;;;;;;;3.13;2.10;;;13.50;74.40;;;;;;5035878;28;20188;-80
2022/02/14 11:44:38;;;;;;;4.40;1.87;;;13.40;74.20;;;;;;5035282;28;20179;-80
2022/02/14 11:47:04;;;;;;;5.23;2.73;;;13.30;74.40;;;;;;5035268;28;20430;-81
2022/02/14 11:49:36;;;;;;;5.20;2.63;;;13.50;74.90;;;;;;5034805;28;20474;-80
2022/02/14 11:52:04;;;;;;;4.47;2.40;;;13.60;74.30;;;;;;5034301;28;20827;-80
2022/02/14 11:54:47;;;;;;;3.80;2.30;;;13.70;74.20;;;;;;5034548;28;20419;-80
2022/02/14 11:57:29;;;;;;;4.43;2.60;;;13.70;74.30;;;;;;5034611;28;20403;-79
2022/02/14 12:00:15;;;;;;;3.53;2.63;;;13.80;74.30;;;;;;5034188;28;21026;-80
2022/02/14 12:02:59;;;;;;;4.53;2.23;;;13.80;74.10;;;;;;5017457;28;20530;-80
2022/02/14 12:05:46;;;;;;;5.27;2.40;;;13.80;74.50;;;;;;5034966;28;20419;-79
2022/02/14 12:08:13;;;;;;;8.43;2.97;;;13.90;74.20;;;;;;5035655;28;20465;-80
2022/02/14 12:10:48;;;;;;;3.90;2.50;;;14.00;74.40;;;;;;5034600;28;20537;-80
2022/02/14 12:13:16;;;;;;;5.30;2.10;;;13.90;73.80;;;;;;5034142;28;20469;-80
2022/02/14 12:21:20;;;;;;;5.10;2.50;;;14.00;74.60;;;;;;5036157;28;20621;-80
2022/02/14 12:23:56;;;;;;;6.57;2.50;;;14.10;74.20;;;;;;5034477;28;20411;-80
2022/02/14 12:26:30;;;;;;;3.30;2.20;;;14.20;73.80;;;;;;5034064;28;20960;-80
2022/02/14 12:31:53;;;;;;;4.43;2.10;;;13.90;74.40;;;;;;5035599;28;20470;-80
2022/02/14 12:34:22;;;;;;;6.00;2.50;;;14.00;74.50;;;;;;5034153;28;20427;-80
2022/02/14 12:36:56;;;;;;;5.07;2.20;;;14.20;74.80;;;;;;5033541;28;20416;-80
2022/02/14 12:39:57;;;;;;;5.70;2.50;;;14.30;74.40;;;;;;5034081;28;20423;-80
2022/02/14 12:42:25;;;;;;;8.93;2.60;;;14.40;74.30;;;;;;5031724;28;20765;-80
2022/02/14 12:44:56;;;;;;;4.90;2.50;;;14.60;74.20;;;;;;5035101;28;20465;-80
2022/02/14 12:47:23;;;;;;;4.00;2.53;;;14.60;74.40;;;;;;5033891;28;20423;-80
2022/02/14 12:50:04;;;;;;;6.23;2.30;;;14.40;74.20;;;;;;5033485;28;20430;-81
2022/02/14 12:52:30;;;;;;;4.37;2.20;;;14.20;74.30;;;;;;5035417;28;20446;-80
2022/02/14 12:54:59;;;;;;;3.87;1.80;;;14.20;74.40;;;;;;5034883;28;20395;-80
2022/02/14 12:57:42;;;;;;;7.97;2.60;;;14.40;74.40;;;;;;5033656;28;20176;-80
2022/02/14 13:00:21;;;;;;;4.03;2.60;;;14.60;73.90;;;;;;5032878;28;20503;-80
2022/02/14 13:02:56;;;;;;;8.17;2.40;;;14.90;73.80;;;;;;5033143;28;20518;-80
2022/02/14 13:05:22;;;;;;;3.90;2.40;;;15.10;73.50;;;;;;5014343;28;20415;-80